Time;durP1;ratioP1;P1;durP2;ratioP2;P2;SDS_P1;SDS_P2;PMS_P1;PMS_P2;Temp;Humidity;BMP_temperature;BMP_pressure;BME280_temperature;BME280_humidity;BME280_pressure;Samples;Min_cycle;Max_cycle;Signal;HPM_P1;HPM_P2
2022/04/05 00:01:27;;;;;;;5.68;3.78;;;8.40;47.10;;;3.99;56.50;95324.44;5074699;28;20043;-49
2022/04/05 00:03:56;;;;;;;5.68;3.92;;;8.40;47.10;;;4.00;56.64;95331.31;5075203;28;20032;-47
2022/04/05 00:06:22;;;;;;;6.97;4.10;;;8.40;47.10;;;3.99;56.00;95330.50;5093170;28;20031;-50
2022/04/05 00:08:48;;;;;;;5.88;3.67;;;8.40;47.10;;;4.01;57.15;95328.47;5075134;28;20390;-49
2022/04/05 00:11:16;;;;;;;6.05;4.00;;;8.40;47.00;;;3.99;56.45;95325.25;5093161;28;20020;-46
2022/04/05 00:13:48;;;;;;;6.50;3.65;;;8.40;47.10;;;3.98;56.32;95318.38;5093082;28;20032;-47
2022/04/05 00:16:14;;;;;;;6.10;3.85;;;8.40;47.10;;;4.01;56.06;95319.72;5070969;28;20028;-48
2022/04/05 00:18:39;;;;;;;7.43;4.93;;;8.40;47.20;;;3.98;55.69;95323.66;5082568;28;20065;-47
2022/04/05 00:21:06;;;;;;;5.90;3.75;;;8.40;47.10;;;4.01;56.60;95319.72;5064158;28;20510;-48
2022/04/05 00:23:35;;;;;;;6.38;4.05;;;8.40;47.10;;;4.00;55.77;95320.78;5071340;28;20081;-49
2022/04/05 00:26:04;;;;;;;5.78;4.35;;;8.30;47.00;;;4.00;56.70;95316.28;5045821;28;20020;-45
2022/04/05 00:28:30;;;;;;;6.10;4.07;;;8.40;47.10;;;3.97;56.67;95310.69;5087255;28;20107;-45
2022/04/05 00:30:56;;;;;;;5.53;4.10;;;8.30;47.10;;;3.96;56.58;95315.16;5071288;28;20116;-50
2022/04/05 00:33:25;;;;;;;8.25;4.78;;;8.40;47.20;;;3.97;56.48;95314.13;5071466;28;20033;-48
2022/04/05 00:36:00;;;;;;;5.60;3.53;;;8.30;47.10;;;3.96;57.25;95304.63;5092480;28;20032;-47
2022/04/05 00:38:27;;;;;;;5.38;3.97;;;8.40;47.30;;;3.96;57.19;95304.63;5060761;28;20039;-46
2022/04/05 00:41:06;;;;;;;6.20;4.03;;;8.30;47.30;;;3.94;57.18;95311.94;5087037;28;20054;-51
2022/04/05 00:43:32;;;;;;;5.75;3.78;;;8.30;47.30;;;3.91;57.51;95313.19;5067601;23;20045;-50
2022/04/05 00:45:58;;;;;;;7.32;4.50;;;8.30;47.40;;;3.92;57.76;95312.19;5071126;28;20029;-51
2022/04/05 00:48:37;;;;;;;5.15;4.18;;;8.30;47.50;;;3.94;58.29;95314.56;5053647;28;20107;-51
2022/04/05 00:51:02;;;;;;;6.70;4.18;;;8.30;47.60;;;3.92;58.58;95311.38;5051328;28;20088;-48
2022/04/05 00:53:35;;;;;;;9.60;4.93;;;8.30;47.70;;;3.96;58.67;95309.88;5067669;28;20452;-49
2022/04/05 00:56:07;;;;;;;7.35;4.70;;;8.30;47.80;;;3.92;58.82;95309.53;5054382;28;20032;-48
2022/04/05 00:58:36;;;;;;;6.45;4.47;;;8.30;47.90;;;3.92;58.72;95309.53;5054353;28;20047;-49
2022/04/05 01:01:15;;;;;;;7.35;4.75;;;8.30;48.00;;;3.91;59.41;95315.81;5053900;28;20067;-51
2022/04/05 01:03:49;;;;;;;7.47;4.63;;;8.30;48.20;;;3.90;59.79;95303.69;5047434;28;20111;-49
2022/04/05 01:06:22;;;;;;;7.22;5.25;;;8.30;48.30;;;3.87;60.05;95309.41;5075470;28;20054;-50
2022/04/05 01:08:49;;;;;;;8.60;4.60;;;8.30;48.50;;;3.84;59.61;95301.97;5092172;28;20473;-51
2022/04/05 01:11:49;;;;;;;7.13;4.93;;;8.30;48.50;;;3.86;60.47;95312.31;5074005;28;20093;-50
2022/04/05 01:14:23;;;;;;;7.75;4.90;;;8.30;48.70;;;3.88;60.97;95313.66;5092177;28;20073;-50
2022/04/05 01:16:51;;;;;;;7.57;4.85;;;8.20;48.80;;;3.84;60.99;95315.16;5074009;28;20028;-49
2022/04/05 01:19:17;;;;;;;8.52;4.68;;;8.20;48.90;;;3.78;61.06;95308.16;5060095;28;20078;-49
2022/04/05 01:21:45;;;;;;;7.20;4.85;;;8.20;49.00;;;3.83;61.26;95310.13;5054339;28;20028;-50
2022/04/05 01:24:14;;;;;;;8.75;5.28;;;8.20;49.10;;;3.77;61.21;95311.03;5053711;28;20020;-49
2022/04/05 01:26:55;;;;;;;7.95;5.00;;;8.20;49.30;;;3.81;61.87;95312.97;5072590;28;20452;-50
2022/04/05 01:29:27;;;;;;;12.48;5.20;;;8.20;49.30;;;3.77;61.61;95308.41;5057741;28;20382;-50
2022/04/05 01:32:07;;;;;;;6.15;4.80;;;8.20;49.40;;;3.75;62.03;95305.19;5074312;28;20043;-51
2022/04/05 01:34:38;;;;;;;7.32;5.03;;;8.20;49.60;;;3.74;61.81;95298.31;5091997;28;20032;-48
2022/04/05 01:37:08;;;;;;;8.30;5.25;;;8.10;49.60;;;3.73;61.74;95305.41;5092265;28;20036;-50
2022/04/05 01:39:38;;;;;;;7.18;4.88;;;8.10;49.70;;;3.72;62.21;95299.31;5092241;28;20036;-48
2022/04/05 01:42:08;;;;;;;7.70;5.60;;;8.10;49.80;;;3.74;62.01;95298.31;5092164;28;20031;-48
2022/04/05 01:44:37;;;;;;;7.97;5.18;;;8.10;49.90;;;3.69;61.97;95304.25;5091632;28;20051;-47
2022/04/05 01:47:11;;;;;;;7.63;5.18;;;8.10;50.00;;;3.69;62.46;95301.63;5074236;28;20024;-48
2022/04/05 01:49:38;;;;;;;7.85;5.03;;;8.10;50.00;;;3.66;62.04;95304.69;5074562;28;20067;-49
2022/04/05 01:52:05;;;;;;;6.25;4.65;;;8.10;50.00;;;3.68;62.09;95303.44;5089075;28;20043;-50
2022/04/05 01:54:31;;;;;;;7.22;4.72;;;8.10;50.00;;;3.62;62.44;95295.66;5033618;28;20399;-48
2022/04/05 01:56:57;;;;;;;7.18;4.50;;;8.10;50.10;;;3.62;61.60;95300.94;5066314;28;20039;-47
2022/04/05 01:59:36;;;;;;;7.82;4.50;;;8.10;50.10;;;3.56;61.57;95296.56;5091784;28;20035;-50
2022/04/05 02:02:07;;;;;;;6.47;4.40;;;8.00;50.10;;;3.58;61.65;95291.88;5092089;28;20032;-51
2022/04/05 02:04:39;;;;;;;6.90;4.53;;;8.00;50.10;;;3.43;61.29;95277.31;5073567;28;20413;-49
2022/04/05 02:07:17;;;;;;;6.22;3.53;;;8.00;50.00;;;3.47;62.00;95291.63;5056851;28;20095;-49
2022/04/05 02:09:45;;;;;;;8.85;4.20;;;8.00;50.00;;;3.44;61.16;95292.06;5057370;28;20074;-52
2022/04/05 02:12:13;;;;;;;5.85;4.32;;;7.90;49.90;;;3.45;61.86;95285.00;5091401;28;20086;-51
2022/04/05 02:14:42;;;;;;;6.90;4.45;;;7.90;49.90;;;3.42;62.01;95283.63;5091515;28;20059;-52
2022/04/05 02:17:09;;;;;;;7.13;4.13;;;7.90;50.00;;;3.42;62.27;95286.25;5091582;28;20032;-51
2022/04/05 02:19:36;;;;;;;7.68;4.47;;;7.90;50.00;;;3.37;61.63;95287.94;5083320;28;20031;-51
2022/04/05 02:22:03;;;;;;;6.13;3.97;;;7.90;50.00;;;3.36;62.12;95283.72;5065031;28;20035;-50
2022/04/05 02:24:32;;;;;;;6.75;4.93;;;7.80;50.00;;;3.35;62.12;95282.91;5076663;28;20112;-53
2022/04/05 02:26:57;;;;;;;6.13;4.63;;;7.80;50.10;;;3.37;61.78;95280.84;5095262;28;20423;-51
2022/04/05 02:29:26;;;;;;;5.75;4.30;;;7.80;50.10;;;3.35;61.90;95280.25;5095084;28;20028;-52
2022/04/05 02:31:52;;;;;;;7.72;4.90;;;7.80;50.20;;;3.32;62.46;95270.22;5076977;28;20498;-52
2022/04/05 02:34:18;;;;;;;8.40;4.70;;;7.80;50.10;;;3.33;62.27;95274.44;5094778;28;20039;-52
2022/04/05 02:36:46;;;;;;;5.05;4.25;;;7.80;50.20;;;3.30;62.65;95274.91;5094955;28;20829;-50
2022/04/05 02:39:27;;;;;;;7.22;4.97;;;7.70;50.30;;;3.28;62.75;95270.88;5076559;28;20043;-50
2022/04/05 02:41:58;;;;;;;6.55;4.43;;;7.80;50.40;;;3.31;63.03;95276.50;5076565;28;20028;-52
2022/04/05 02:44:27;;;;;;;7.38;4.45;;;7.80;50.50;;;3.29;63.22;95277.75;5094518;28;20523;-49
2022/04/05 02:46:53;;;;;;;7.35;4.80;;;7.70;50.60;;;3.26;63.05;95273.75;5094636;28;20032;-52
2022/04/05 02:49:22;;;;;;;8.98;4.60;;;7.70;50.70;;;3.30;63.67;95269.63;5076738;28;20144;-51
2022/04/05 02:51:48;;;;;;;7.45;4.93;;;7.70;50.80;;;3.29;63.51;95269.84;5094452;28;20036;-52
2022/04/05 02:54:13;;;;;;;9.18;4.50;;;7.70;51.40;;;3.28;63.83;95266.41;5094580;28;20390;-50
2022/04/05 02:56:39;;;;;;;6.90;4.80;;;7.70;50.80;;;3.29;63.80;95267.22;5076697;28;20040;-51
2022/04/05 02:59:05;;;;;;;7.80;4.85;;;7.70;50.90;;;3.27;63.88;95264.81;5094328;28;20024;-51
2022/04/05 03:01:30;;;;;;;8.60;4.88;;;7.70;50.90;;;3.26;64.14;95263.22;5094888;28;20055;-50
2022/04/05 03:04:05;;;;;;;7.20;4.97;;;7.70;51.00;;;3.25;64.44;95269.50;5053130;28;20391;-48
2022/04/05 03:06:37;;;;;;;7.53;5.00;;;7.70;51.10;;;3.28;64.45;95266.41;5089435;28;20482;-48
2022/04/05 03:09:03;;;;;;;7.82;5.55;;;7.70;51.20;;;3.27;64.59;95272.72;5079656;28;20149;-48
2022/04/05 03:11:29;;;;;;;6.68;5.00;;;7.70;51.20;;;3.27;64.96;95271.91;5068610;28;20028;-51
2022/04/05 03:13:54;;;;;;;9.65;5.03;;;7.70;51.50;;;3.29;64.90;95270.66;5073860;28;20028;-53
2022/04/05 03:16:26;;;;;;;7.45;5.35;;;7.70;51.60;;;3.30;65.02;95260.94;5056192;28;20495;-51
2022/04/05 03:18:54;;;;;;;9.68;4.85;;;7.70;51.60;;;3.27;65.30;95264.00;5055922;28;20079;-53
2022/04/05 03:21:20;;;;;;;8.70;5.40;;;7.70;51.70;;;3.27;65.34;95259.56;5055760;28;20078;-53
2022/04/05 03:23:46;;;;;;;10.27;5.93;;;7.70;51.80;;;3.30;65.23;95258.31;5035962;28;20025;-53
2022/04/05 03:26:15;;;;;;;8.30;5.43;;;7.70;51.80;;;3.29;65.31;95260.13;5055927;28;20111;-52
2022/04/05 03:28:41;;;;;;;8.45;5.40;;;7.70;52.00;;;3.30;65.01;95258.31;5073490;28;20081;-50
2022/04/05 03:31:07;;;;;;;8.35;5.60;;;7.80;52.40;;;3.33;65.52;95258.66;5073699;28;20063;-50
2022/04/05 03:33:36;;;;;;;7.25;5.35;;;7.80;52.00;;;3.32;65.89;95272.84;5073368;28;20033;-50
2022/04/05 03:36:07;;;;;;;9.68;6.13;;;7.70;52.10;;;3.37;65.55;95272.16;5073631;28;20386;-48
2022/04/05 03:38:33;;;;;;;7.00;5.25;;;7.80;52.20;;;3.39;65.62;95272.75;5073143;28;20040;-52
2022/04/05 03:40:59;;;;;;;12.15;6.10;;;7.80;52.20;;;3.38;66.25;95274.53;5073193;28;20484;-52
2022/04/05 03:43:28;;;;;;;9.32;6.00;;;7.80;52.30;;;3.33;65.57;95278.91;5073156;28;20049;-50
2022/04/05 03:45:53;;;;;;;8.80;5.68;;;7.80;52.40;;;3.38;65.89;95269.28;5073232;28;20551;-52
2022/04/05 03:48:19;;;;;;;7.78;5.50;;;7.70;52.40;;;3.41;65.92;95270.66;5055252;28;20053;-50
2022/04/05 03:50:48;;;;;;;8.27;5.57;;;7.80;52.40;;;3.40;65.67;95272.50;5073215;28;20441;-48
2022/04/05 03:53:14;;;;;;;8.65;5.65;;;7.80;52.50;;;3.37;65.74;95272.94;5055102;28;20048;-52
2022/04/05 03:55:46;;;;;;;7.72;5.78;;;7.70;52.50;;;3.37;65.42;95272.94;5055084;28;20086;-49
2022/04/05 03:58:18;;;;;;;8.45;5.60;;;7.70;52.50;;;3.37;65.67;95269.53;5073049;28;20043;-47
2022/04/05 04:00:44;;;;;;;8.38;5.68;;;7.70;52.60;;;3.37;65.29;95269.53;5055003;28;20111;-47
2022/04/05 04:03:10;;;;;;;9.20;5.80;;;7.70;52.60;;;3.39;65.38;95273.53;5072933;28;20108;-48
2022/04/05 04:05:35;;;;;;;6.78;5.28;;;7.70;52.50;;;3.36;65.44;95267.94;5085737;28;20052;-48
2022/04/05 04:08:01;;;;;;;9.25;5.68;;;7.80;52.60;;;3.38;66.31;95279.81;5092880;28;20058;-50
2022/04/05 04:10:27;;;;;;;10.48;6.07;;;7.80;52.60;;;3.39;66.15;95272.75;5058014;28;20028;-53
2022/04/05 04:12:59;;;;;;;9.48;6.40;;;7.70;52.60;;;3.39;67.21;95264.84;5072927;28;20490;-49
2022/04/05 04:15:28;;;;;;;8.88;5.40;;;7.80;52.80;;;3.42;66.71;95272.28;5054980;28;20035;-50
2022/04/05 04:17:56;;;;;;;11.65;5.90;;;7.70;52.80;;;3.39;66.80;95264.84;5054888;28;20029;-51
2022/04/05 04:20:22;;;;;;;7.72;5.80;;;7.70;52.90;;;3.39;67.40;95254.31;5072326;28;20033;-52
2022/04/05 04:22:51;;;;;;;9.23;6.38;;;7.70;53.00;;;3.36;68.06;95266.09;5054767;28;20383;-51
2022/04/05 04:25:23;;;;;;;10.45;6.20;;;7.70;53.80;;;3.34;68.52;95268.13;5054809;28;20487;-47
2022/04/05 04:27:48;;;;;;;8.48;6.03;;;7.60;53.30;;;3.33;68.91;95268.38;5072542;28;20047;-51
2022/04/05 04:30:14;;;;;;;13.75;6.63;;;7.60;53.40;;;3.29;69.40;95265.41;5072500;28;20025;-48
2022/04/05 04:32:40;;;;;;;10.95;6.65;;;7.50;53.70;;;3.21;69.60;95271.78;5072387;28;20032;-52
2022/04/05 04:35:07;;;;;;;10.60;6.55;;;7.50;53.90;;;3.17;70.25;95264.56;5054503;28;20032;-47
2022/04/05 04:37:42;;;;;;;8.60;6.00;;;7.40;54.70;;;3.10;69.86;95263.84;5072175;28;20031;-50
2022/04/05 04:40:09;;;;;;;10.13;6.50;;;7.30;54.20;;;3.04;70.85;95264.75;5043730;28;20403;-48
2022/04/05 04:42:38;;;;;;;10.13;6.65;;;7.20;54.40;;;2.98;69.53;95259.38;5074532;28;20032;-49
2022/04/05 04:45:05;;;;;;;9.32;6.32;;;7.20;54.60;;;2.98;70.63;95255.94;5074113;28;20055;-52
2022/04/05 04:47:34;;;;;;;11.57;6.13;;;7.20;54.80;;;2.93;70.14;95251.34;5057723;28;20479;-48
2022/04/05 04:50:03;;;;;;;11.93;6.15;;;7.10;54.90;;;2.92;70.49;95260.25;5092353;28;20133;-52
2022/04/05 04:52:32;;;;;;;10.75;6.60;;;7.00;55.10;;;2.92;70.88;95265.53;5092529;28;20105;-48
2022/04/05 04:55:01;;;;;;;10.30;6.50;;;7.00;55.30;;;2.91;70.83;95266.53;5074261;28;20398;-50
2022/04/05 04:57:27;;;;;;;9.32;6.20;;;7.00;55.40;;;2.90;69.95;95256.25;5092406;28;20110;-48
2022/04/05 05:00:13;;;;;;;8.65;5.70;;;7.00;55.50;;;2.93;69.29;95269.75;5092080;28;20158;-48
2022/04/05 05:02:47;;;;;;;9.05;5.80;;;7.00;55.50;;;2.98;70.39;95263.84;5075615;28;20493;-47
2022/04/05 05:05:19;;;;;;;9.55;5.47;;;7.00;55.70;;;2.99;68.76;95257.53;5053952;28;20414;-49
2022/04/05 05:07:49;;;;;;;9.20;5.57;;;7.00;55.70;;;2.99;69.23;95252.28;5034340;28;20033;-48
2022/04/05 05:10:16;;;;;;;12.95;7.03;;;7.00;55.80;;;3.06;69.02;95260.06;5055759;28;20628;-47
2022/04/05 05:13:00;;;;;;;9.00;5.90;;;7.10;55.90;;;3.09;69.40;95257.78;5072963;28;20506;-49
2022/04/05 05:15:29;;;;;;;10.88;6.70;;;7.10;56.00;;;3.12;68.85;95262.59;5072033;28;20032;-51
2022/04/05 05:17:55;;;;;;;11.75;7.00;;;7.10;55.90;;;3.12;69.30;95256.53;5071979;28;20036;-49
2022/04/05 05:20:22;;;;;;;10.20;7.18;;;7.20;56.00;;;3.16;69.32;95263.75;5071692;28;20051;-51
2022/04/05 05:22:48;;;;;;;10.70;7.13;;;7.20;56.00;;;3.18;67.88;95263.53;5071811;28;20052;-53
2022/04/05 05:25:14;;;;;;;9.43;6.22;;;7.20;56.00;;;3.15;67.65;95261.34;5052754;28;20031;-50
2022/04/05 05:27:40;;;;;;;10.68;6.55;;;7.20;55.80;;;3.23;68.43;95261.84;5071724;28;20498;-53
2022/04/05 05:30:09;;;;;;;10.77;6.78;;;7.20;55.70;;;3.28;68.32;95270.88;5070939;28;20036;-53
2022/04/05 05:32:51;;;;;;;10.20;6.53;;;7.30;55.70;;;3.24;67.48;95271.31;5053123;28;20063;-49
2022/04/05 05:35:19;;;;;;;10.45;6.78;;;7.40;55.70;;;3.27;67.91;95269.28;5072019;28;20121;-50
2022/04/05 05:37:56;;;;;;;9.95;6.03;;;7.30;55.50;;;3.29;66.71;95262.75;5037949;28;20070;-52
2022/04/05 05:40:22;;;;;;;11.70;6.97;;;7.40;55.50;;;3.31;67.50;95265.97;4975623;28;20504;-49
2022/04/05 05:42:59;;;;;;;12.40;7.20;;;7.40;55.50;;;3.35;66.85;95275.00;5084838;28;20395;-52
2022/04/05 05:45:26;;;;;;;10.27;7.07;;;7.40;55.40;;;3.36;68.03;95263.47;5049490;28;20039;-54
2022/04/05 05:47:53;;;;;;;10.38;6.53;;;7.40;55.50;;;3.41;67.66;95275.94;5053856;28;20029;-50
2022/04/05 05:50:20;;;;;;;13.90;7.88;;;7.50;55.50;;;3.42;67.44;95278.34;5053472;28;20035;-52
2022/04/05 05:52:46;;;;;;;10.38;7.07;;;7.50;55.50;;;3.41;67.47;95281.19;5034457;28;20387;-49
2022/04/05 05:55:15;;;;;;;11.60;7.63;;;7.60;55.40;;;3.40;67.60;95285.66;5045038;28;20306;-50
2022/04/05 05:57:41;;;;;;;10.32;7.45;;;7.60;55.40;;;3.42;67.39;95280.19;5050225;28;20111;-51
2022/04/05 06:00:12;;;;;;;11.85;6.60;;;7.60;55.90;;;3.47;66.91;95291.63;5035741;28;20057;-52
2022/04/05 06:02:39;;;;;;;10.95;7.10;;;7.60;55.20;;;3.49;68.31;95288.78;5049213;28;20021;-48
2022/04/05 06:05:06;;;;;;;15.02;7.55;;;7.60;55.30;;;3.47;66.70;95289.00;5038851;28;20047;-49
2022/04/05 06:07:33;;;;;;;11.65;7.90;;;7.70;55.30;;;3.51;67.32;95289.38;5037370;28;20033;-51
2022/04/05 06:10:08;;;;;;;14.45;7.72;;;7.70;55.30;;;3.53;68.00;95299.66;5067126;28;20094;-47
2022/04/05 06:12:38;;;;;;;10.40;6.45;;;7.70;55.30;;;3.47;68.25;95298.72;5035465;28;20031;-49
2022/04/05 06:15:10;;;;;;;13.90;7.00;;;7.70;55.30;;;3.47;67.96;95302.16;5041549;28;20108;-49
2022/04/05 06:17:43;;;;;;;11.07;7.82;;;7.70;55.40;;;3.45;69.08;95293.69;5032885;28;20032;-49
2022/04/05 06:20:10;;;;;;;;;;;7.70;55.50;;;3.45;68.69;95298.97;5044192;28;20075;-49
2022/04/05 06:23:07;;;;;;;14.80;7.40;;;7.70;55.30;;;3.48;68.81;95295.09;5057135;28;19912;-50
2022/04/05 06:25:38;;;;;;;11.98;7.10;;;7.70;55.40;;;3.48;68.46;95295.09;5029251;28;20040;-50
2022/04/05 06:28:09;;;;;;;12.23;8.05;;;7.80;55.50;;;3.51;69.69;95297.25;5051549;28;20115;-50
2022/04/05 06:30:38;;;;;;;12.30;8.02;;;7.80;55.50;;;3.45;68.85;95295.53;5058318;28;20020;-49
2022/04/05 06:33:14;;;;;;;12.88;8.18;;;7.80;55.50;;;3.52;69.19;95293.59;5056662;28;20032;-50
2022/04/05 06:35:53;;;;;;;13.65;7.30;;;7.90;55.60;;;3.50;69.58;95289.56;5046390;28;20021;-53
2022/04/05 06:38:20;;;;;;;12.98;8.05;;;7.90;55.60;;;3.56;69.10;95291.31;5020874;28;20025;-49
2022/04/05 06:40:46;;;;;;;16.63;7.18;;;8.00;55.60;;;3.56;67.93;95288.66;5035725;28;20075;-51
2022/04/05 06:43:24;;;;;;;15.45;8.38;;;8.00;55.40;;;3.61;68.77;95297.50;5051066;22;20060;-45
2022/04/05 06:45:50;;;;;;;11.20;7.32;;;8.10;55.40;;;3.64;67.75;95294.41;5064389;28;20032;-48
2022/04/05 06:48:15;;;;;;;13.40;7.53;;;8.10;55.20;;;3.71;68.44;95292.47;5070929;28;20029;-46
2022/04/05 06:50:41;;;;;;;10.25;5.85;;;8.20;55.20;;;3.77;68.35;95287.31;5072086;28;20098;-48
2022/04/05 06:53:11;;;;;;;12.60;7.10;;;8.20;55.10;;;3.76;65.94;95280.44;5074563;28;20028;-46
2022/04/05 06:55:38;;;;;;;12.15;7.30;;;8.30;54.90;;;3.87;64.91;95293.59;5086571;28;20401;-48
2022/04/05 06:58:04;;;;;;;11.68;6.55;;;8.40;54.70;;;3.89;64.78;95288.91;5074351;28;20036;-47
2022/04/05 07:00:33;;;;;;;10.88;7.18;;;8.50;54.30;;;3.93;63.07;95284.00;5070259;28;20107;-48
2022/04/05 07:02:59;;;;;;;11.10;7.28;;;8.60;53.80;;;4.03;64.13;95288.69;5106569;28;20106;-47
2022/04/05 07:05:30;;;;;;;11.77;7.20;;;8.80;53.50;;;4.13;63.14;95284.41;5057100;28;20106;-48
2022/04/05 07:08:06;;;;;;;11.05;6.30;;;8.90;53.10;;;4.19;62.59;95274.78;5078272;28;20066;-49
2022/04/05 07:10:35;;;;;;;10.63;4.97;;;9.00;52.70;;;4.24;61.01;95277.53;5107273;28;20030;-47
2022/04/05 07:13:08;;;;;;;8.18;5.38;;;9.10;52.00;;;4.31;59.33;95280.84;5089250;28;20028;-48
2022/04/05 07:15:34;;;;;;;9.77;5.57;;;9.20;51.40;;;4.40;59.94;95284.72;5073773;28;20502;-50
2022/04/05 07:18:09;;;;;;;6.65;4.32;;;9.40;51.10;;;4.43;59.47;95283.47;5076064;28;20024;-47
2022/04/05 07:20:38;;;;;;;7.13;4.88;;;9.50;50.60;;;4.44;59.49;95292.97;5093974;28;20024;-46
2022/04/05 07:23:07;;;;;;;7.00;3.90;;;9.50;49.80;;;4.34;60.08;95295.41;5076038;28;20506;-50
2022/04/05 07:25:38;;;;;;;6.35;4.43;;;9.60;49.50;;;4.42;61.06;95302.97;5093930;28;20311;-46
2022/04/05 07:28:05;;;;;;;8.23;4.60;;;9.70;49.60;;;4.41;61.64;95304.78;5075679;28;20482;-46
2022/04/05 07:30:31;;;;;;;5.55;4.25;;;9.70;49.90;;;4.28;62.58;95302.41;5075577;28;20032;-51
2022/04/05 07:33:03;;;;;;;7.78;4.95;;;9.80;49.90;;;4.31;62.70;95307.22;5075857;28;20398;-46
2022/04/05 07:35:35;;;;;;;5.90;3.90;;;9.80;50.00;;;4.29;64.35;95300.56;5058982;28;20519;-47
2022/04/05 07:38:07;;;;;;;6.35;4.30;;;9.80;50.00;;;4.48;65.75;95291.50;5059095;28;20536;-47
2022/04/05 07:40:54;;;;;;;8.05;4.28;;;9.90;50.30;;;4.51;63.88;95296.31;5075508;28;20068;-48
2022/04/05 07:43:33;;;;;;;5.45;3.92;;;10.10;50.50;;;4.48;64.62;95282.75;5093358;28;20510;-50
2022/04/05 07:46:10;;;;;;;5.13;3.47;;;10.20;50.20;;;4.58;60.56;95281.16;5075930;28;20024;-47
2022/04/05 07:48:36;;;;;;;5.97;3.90;;;10.10;50.00;;;4.69;63.40;95279.50;5093694;28;20024;-52
2022/04/05 07:51:08;;;;;;;8.77;4.50;;;10.10;49.80;;;4.72;61.15;95265.03;5075386;28;20040;-47
2022/04/05 07:53:40;;;;;;;5.10;2.97;;;10.10;49.80;;;4.84;60.62;95279.78;5072834;28;20420;-46
2022/04/05 07:56:06;;;;;;;5.35;3.83;;;10.20;49.70;;;4.96;61.52;95276.31;5107331;28;20273;-46
2022/04/05 07:58:31;;;;;;;8.27;4.43;;;10.30;49.60;;;5.06;61.77;95285.19;5095640;28;20028;-46
2022/04/05 08:01:00;;;;;;;6.57;4.40;;;10.50;49.40;;;5.27;61.26;95285.56;5074913;28;20028;-47
2022/04/05 08:03:29;;;;;;;7.38;4.25;;;10.60;49.30;;;5.26;60.88;95266.25;5100130;28;20058;-48
2022/04/05 08:06:00;;;;;;;8.25;3.95;;;10.80;49.20;;;5.40;59.67;95276.53;5077061;28;20027;-46
2022/04/05 08:08:35;;;;;;;6.68;4.30;;;10.90;48.90;;;5.39;59.09;95261.72;5075167;28;20396;-50
2022/04/05 08:11:01;;;;;;;7.45;4.10;;;11.00;48.40;;;5.56;60.15;95258.03;5093727;28;20085;-50
2022/04/05 08:13:30;;;;;;;6.25;4.45;;;11.20;48.40;;;5.55;58.34;95260.94;5092893;28;20493;-50
2022/04/05 08:15:56;;;;;;;6.32;4.20;;;11.30;47.90;;;5.59;59.01;95243.56;5074901;28;20052;-47
2022/04/05 08:18:24;;;;;;;5.60;4.05;;;11.50;47.70;;;5.77;57.79;95258.38;5051466;28;20024;-48
2022/04/05 08:20:54;;;;;;;7.53;4.15;;;11.60;47.50;;;5.91;58.54;95264.91;5056944;28;20111;-45
2022/04/05 08:23:20;;;;;;;10.43;4.10;;;11.70;47.20;;;6.03;57.23;95265.63;5074772;28;20023;-46
2022/04/05 08:25:51;;;;;;;6.68;3.53;;;11.90;46.80;;;6.19;57.71;95281.72;5074718;28;20027;-48
2022/04/05 08:28:17;;;;;;;7.60;4.47;;;12.10;46.60;;;6.14;56.16;95261.31;5092796;28;20393;-47
2022/04/05 08:30:42;;;;;;;9.60;3.97;;;12.10;46.20;;;6.13;56.11;95269.47;5074555;28;20110;-47
2022/04/05 08:33:08;;;;;;;6.70;3.72;;;12.20;46.00;;;6.19;56.06;95273.78;5092760;28;20099;-46
2022/04/05 08:35:34;;;;;;;4.85;3.50;;;12.20;45.80;;;6.16;55.92;95275.06;5066532;28;20032;-48
2022/04/05 08:38:00;;;;;;;8.00;3.90;;;12.20;45.50;;;6.23;56.70;95270.38;5100831;28;20027;-47
2022/04/05 08:40:26;;;;;;;5.55;4.07;;;12.30;45.20;;;6.38;55.76;95261.06;5080822;28;20058;-51
2022/04/05 08:42:56;;;;;;;6.30;4.00;;;12.50;45.20;;;6.47;55.50;95267.53;5082199;28;20084;-47
2022/04/05 08:45:24;;;;;;;6.57;4.50;;;12.70;44.90;;;6.56;55.25;95273.19;5062942;28;20040;-47
2022/04/05 08:47:59;;;;;;;6.70;3.97;;;12.80;44.70;;;6.72;55.81;95285.56;5078763;28;20024;-48
2022/04/05 08:50:31;;;;;;;7.57;4.03;;;13.00;44.40;;;6.72;54.79;95288.22;5048710;28;20516;-47
2022/04/05 08:53:00;;;;;;;6.85;4.53;;;13.10;44.10;;;6.58;55.22;95260.50;5089019;28;20105;-49
2022/04/05 08:55:29;;;;;;;8.52;4.20;;;13.20;43.80;;;6.83;55.76;95278.53;5099241;28;20050;-47
2022/04/05 08:57:58;;;;;;;8.25;4.43;;;13.20;43.70;;;6.89;55.53;95280.19;5074228;28;20179;-48
2022/04/05 09:00:27;;;;;;;8.65;4.40;;;13.20;43.70;;;6.79;55.74;95280.88;5067709;28;20031;-48
2022/04/05 09:03:01;;;;;;;8.65;3.97;;;13.30;43.50;;;7.00;55.49;95283.75;5091483;28;20023;-47
2022/04/05 09:05:44;;;;;;;6.95;4.72;;;13.30;43.60;;;6.88;55.04;95268.78;5087162;28;20031;-47
2022/04/05 09:08:31;;;;;;;7.95;4.28;;;13.30;43.40;;;6.84;55.50;95280.16;5094346;28;20478;-50
2022/04/05 09:11:03;;;;;;;9.75;4.75;;;13.30;43.40;;;6.83;55.35;95281.16;5079998;28;20032;-48
2022/04/05 09:13:29;;;;;;;12.38;4.28;;;13.30;43.50;;;6.88;55.52;95268.00;5096879;28;20375;-47
2022/04/05 09:15:59;;;;;;;6.80;4.72;;;13.30;43.50;;;6.80;55.14;95263.13;5067747;28;20479;-47
2022/04/05 09:18:38;;;;;;;7.93;4.85;;;13.30;43.30;;;6.78;56.30;95274.00;5081496;28;20029;-53
2022/04/05 09:21:09;;;;;;;6.22;4.80;;;13.40;43.20;;;7.01;56.76;95270.25;5067744;28;20482;-53
2022/04/05 09:23:44;;;;;;;13.90;4.80;;;13.60;43.20;;;7.12;54.93;95274.63;5085131;28;20032;-55
2022/04/05 09:26:13;;;;;;;6.28;4.68;;;13.70;42.90;;;7.09;53.84;95267.16;5098821;28;20085;-45
2022/04/05 09:28:46;;;;;;;10.27;5.43;;;13.80;42.60;;;7.23;53.80;95274.72;5094638;28;20393;-44
2022/04/05 09:31:20;;;;;;;10.05;5.40;;;14.00;42.20;;;7.44;54.32;95268.53;5112107;28;20093;-47
2022/04/05 09:34:12;;;;;;;7.93;4.65;;;14.10;42.30;;;7.49;53.30;95265.94;5096595;28;20402;-48
2022/04/05 09:36:48;;;;;;;14.30;5.32;;;14.30;41.50;;;7.54;53.29;95276.56;5105052;28;20548;-51
2022/04/05 09:39:16;;;;;;;9.55;5.13;;;14.40;41.20;;;7.49;52.93;95278.38;5078310;28;20473;-52
2022/04/05 09:41:58;;;;;;;9.07;4.80;;;14.50;40.80;;;7.72;53.54;95280.69;5077913;28;20394;-48
2022/04/05 09:44:45;;;;;;;8.38;4.90;;;14.50;40.90;;;7.87;53.14;95272.06;5078454;28;20040;-46
2022/04/05 09:47:17;;;;;;;7.43;5.28;;;14.60;41.00;;;7.69;51.91;95273.25;5089585;28;20510;-47
2022/04/05 09:49:46;;;;;;;9.97;6.17;;;14.60;40.40;;;7.70;51.86;95266.88;5077719;28;20039;-49
2022/04/05 09:52:25;;;;;;;8.18;5.68;;;14.60;40.20;;;7.77;51.94;95266.69;5058332;28;20286;-49
2022/04/05 09:55:15;;;;;;;9.45;5.80;;;14.70;40.10;;;7.81;52.04;95254.53;5066650;28;20024;-47
2022/04/05 09:57:42;;;;;;;12.57;6.93;;;14.80;39.70;;;7.95;52.33;95257.53;5065150;28;20103;-47
2022/04/05 10:00:17;;;;;;;10.52;6.15;;;15.00;39.60;;;8.27;51.66;95265.41;5093652;28;20024;-47
2022/04/05 10:03:10;;;;;;;11.27;5.95;;;15.20;40.40;;;8.22;50.10;95268.84;5087990;28;20024;-53
2022/04/05 10:05:36;;;;;;;7.82;6.05;;;15.40;39.20;;;8.06;51.52;95256.53;5070256;28;20024;-50
2022/04/05 10:08:03;;;;;;;8.38;5.65;;;15.50;38.80;;;8.20;49.19;95265.63;5077358;28;20043;-49
2022/04/05 10:10:29;;;;;;;8.40;5.18;;;15.70;38.40;;;8.28;49.15;95262.50;5095255;28;20703;-48
2022/04/05 10:12:55;;;;;;;8.13;5.82;;;15.70;38.10;;;8.31;49.94;95256.69;5007597;28;20074;-46
2022/04/05 10:15:31;;;;;;;9.02;5.72;;;15.80;38.40;;;8.18;49.69;95253.66;5052751;28;20028;-48
2022/04/05 10:18:06;;;;;;;8.75;5.93;;;15.80;37.60;;;8.26;50.72;95267.25;5059124;28;20032;-46
2022/04/05 10:20:34;;;;;;;8.75;6.22;;;15.90;37.50;;;8.40;50.32;95264.16;5076885;28;20051;-45
2022/04/05 10:23:02;;;;;;;6.78;5.22;;;15.90;37.50;;;8.37;49.78;95252.22;5060148;28;20034;-47
2022/04/05 10:25:32;;;;;;;7.88;5.63;;;15.80;37.30;;;8.28;48.95;95254.53;5067341;28;20056;-48
2022/04/05 10:27:59;;;;;;;7.55;5.93;;;15.80;37.00;;;8.07;48.97;95250.19;5073526;28;20043;-50
2022/04/05 10:30:48;;;;;;;7.13;5.40;;;15.70;36.60;;;8.10;49.10;95249.66;5075165;28;20030;-46
2022/04/05 10:33:49;;;;;;;11.43;5.72;;;15.70;36.60;;;8.39;49.36;95247.44;5073518;28;20398;-47
2022/04/05 10:36:23;;;;;;;7.93;5.75;;;15.80;36.60;;;8.53;48.42;95237.19;5063217;28;20060;-46
2022/04/05 10:39:22;;;;;;;7.82;5.80;;;16.20;36.20;;;8.84;48.99;95237.25;5040115;28;20032;-47
2022/04/05 10:42:20;;;;;;;8.93;6.07;;;16.60;35.80;;;9.17;48.54;95228.84;5089572;28;20509;-46
2022/04/05 10:44:54;;;;;;;7.88;6.03;;;17.00;35.80;;;9.23;47.62;95229.66;5076659;28;20434;-47